| time (UTC) | temp F | wind direction | speed knots | gust knots | rain 1hr in | rain 24hr in | rain mn in | humidity % | barometer mb |
| 20260906041535 | 61 | 108 | 0.0 | 0.0 | 0.00 | 0.07 | 0.00 | 93 | 1014.4 |
| 20260906040020 | 61 | 117 | 0.0 | 0.9 | 0.00 | 0.07 | 0.00 | 93 | 1014.4 |
| 20260906034526 | 62 | 117 | 0.0 | 0.9 | 0.05 | 0.07 | 0.07 | 93 | 1014.2 |
| 20260906033030 | 62 | 117 | 0.0 | 0.9 | 0.05 | 0.07 | 0.07 | 92 | 1014.2 |
| 20260906031509 | 62 | 117 | 0.0 | 0.9 | 0.05 | 0.07 | 0.07 | 92 | 1014.0 |
| 20260906030008 | 63 | 265 | 0.0 | 0.9 | 0.05 | 0.07 | 0.07 | 90 | 1014.2 |
| 20260906024509 | 63 | 266 | 0.0 | 0.9 | 0.00 | 0.02 | 0.02 | 87 | 1014.0 |
| 20260906023004 | 63 | 55 | 0.0 | 0.9 | 0.00 | 0.02 | 0.02 | 86 | 1013.8 |
| 20260906021508 | 64 | 113 | 0.0 | 0.9 | 0.00 | 0.02 | 0.02 | 86 | 1013.9 |
| 20260906020011 | 64 | 87 | 0.0 | 2.6 | 0.00 | 0.02 | 0.02 | 86 | 1013.8 |
| 20260906014512 | 64 | 110 | 1.7 | 4.3 | 0.00 | 0.02 | 0.02 | 87 | 1013.6 |
| 20260906013010 | 64 | 105 | 0.0 | 1.7 | 0.00 | 0.02 | 0.02 | 88 | 1013.6 |
| 20260906011505 | 65 | 89 | 0.0 | 3.5 | 0.00 | 0.02 | 0.02 | 88 | 1013.6 |
| 20260906010010 | 65 | 116 | 1.7 | 2.6 | 0.00 | 0.02 | 0.02 | 88 | 1013.5 |
| 20260906004512 | 65 | 102 | 0.9 | 2.6 | 0.00 | 0.02 | 0.02 | 87 | 1013.3 |
| 20260906003012 | 65 | 112 | 0.0 | 1.7 | 0.00 | 0.02 | 0.02 | 87 | 1013.0 |
| 20260906001512 | 65 | 79 | 0.9 | 2.6 | 0.00 | 0.02 | 0.02 | 87 | 1012.8 |
| 20260906000026 | 66 | 104 | 0.0 | 1.7 | 0.00 | 0.02 | 0.02 | 88 | 1012.6 |
| 20260905234509 | 66 | 99 | 0.9 | 2.6 | 0.00 | 0.02 | 0.02 | 87 | 1012.5 |
| 20260905233013 | 66 | 72 | 0.9 | 2.6 | 0.00 | 0.02 | 0.02 | 91 | 1012.2 |
| 20260905231504 | 66 | 100 | 0.0 | 0.9 | 0.01 | 0.02 | 0.02 | 89 | 1012.0 |
| 20260905230003 | 66 | 111 | 0.0 | 2.6 | 0.01 | 0.02 | 0.02 | 87 | 1012.0 |
| 20260905224508 | 67 | 66 | 0.0 | 0.9 | 0.02 | 0.02 | 0.02 | 83 | 1012.0 |
| 20260905223016 | 68 | 348 | 2.6 | 6.1 | 0.02 | 0.02 | 0.02 | 78 | 1012.0 |
| 20260905221519 | 70 | 113 | 0.0 | 5.2 | 0.01 | 0.01 | 0.01 | 79 | 1011.8 |
| 20260905220004 | 70 | 172 | 0.0 | 1.7 | 0.01 | 0.01 | 0.01 | 79 | 1011.7 |
| 20260905214508 | 73 | 84 | 0.9 | 2.6 | 0.00 | 0.00 | 0.00 | 71 | 1011.5 |
| 20260905213011 | 72 | 95 | 1.7 | 5.2 | 0.00 | 0.00 | 0.00 | 69 | 1011.3 |
| 20260905211516 | 74 | 118 | 1.7 | 7.8 | 0.00 | 0.00 | 0.00 | 68 | 1011.2 |
| 20260905210022 | 75 | 67 | 2.6 | 11.3 | 0.00 | 0.00 | 0.00 | 66 | 1011.0 |
| 20260905204504 | 76 | 131 | 2.6 | 6.1 | 0.00 | 0.00 | 0.00 | 60 | 1011.0 |
| 20260905203006 | 74 | 67 | 2.6 | 6.1 | 0.00 | 0.00 | 0.00 | 62 | 1011.0 |
| 20260905201514 | 75 | 353 | 2.6 | 5.2 | 0.00 | 0.00 | 0.00 | 60 | 1010.8 |
| 20260905200026 | 75 | 333 | 0.9 | 4.3 | 0.00 | 0.00 | 0.00 | 59 | 1010.6 |
| 20260905194524 | 76 | 333 | 3.5 | 7.0 | 0.00 | 0.00 | 0.00 | 56 | 1010.7 |
| 20260905193020 | 75 | 75 | 1.7 | 5.2 | 0.00 | 0.00 | 0.00 | 58 | 1010.7 |
| 20260905191510 | 75 | 68 | 1.7 | 4.3 | 0.00 | 0.00 | 0.00 | 59 | 1010.6 |
| 20260905190016 | 76 | 91 | 1.7 | 6.1 | 0.00 | 0.00 | 0.00 | 57 | 1010.7 |
| 20260905184541 | 76 | 349 | 0.9 | 4.3 | 0.00 | 0.00 | 0.00 | 58 | 1010.8 |
| 20260905183039 | 75 | 139 | 1.7 | 6.1 | 0.00 | 0.00 | 0.00 | 59 | 1010.8 |
| 20260905181523 | 76 | 42 | 0.9 | 6.1 | 0.00 | 0.00 | 0.00 | 58 | 1010.7 |
| 20260905180011 | 76 | 342 | 3.5 | 7.8 | 0.00 | 0.00 | 0.00 | 58 | 1010.8 |
| 20260905174517 | 77 | 354 | 3.5 | 8.7 | 0.00 | 0.00 | 0.00 | 54 | 1010.8 |
| 20260905173020 | 77 | 303 | 2.6 | 8.7 | 0.00 | 0.00 | 0.00 | 57 | 1010.8 |
| 20260905171525 | 76 | 341 | 1.7 | 7.8 | 0.00 | 0.00 | 0.00 | 54 | 1010.8 |
| 20260905170025 | 75 | 65 | 1.7 | 8.7 | 0.00 | 0.00 | 0.00 | 56 | 1010.9 |
| 20260905164528 | 75 | 7 | 6.1 | 9.6 | 0.00 | 0.00 | 0.00 | 57 | 1010.8 |
| 20260905163018 | 75 | 355 | 3.5 | 7.8 | 0.00 | 0.00 | 0.00 | 60 | 1010.9 |
| 20260905161524 | 74 | 347 | 2.6 | 9.6 | 0.00 | 0.00 | 0.00 | 62 | 1010.9 |
| 20260905160029 | 75 | 76 | 2.6 | 7.8 | 0.00 | 0.00 | 0.00 | 60 | 1011.0 |
| 20260905154535 | 74 | 18 | 4.3 | 13.9 | 0.00 | 0.00 | 0.00 | 62 | 1011.1 |
| 20260905153014 | 72 | 273 | 1.7 | 9.6 | 0.00 | 0.00 | 0.00 | 67 | 1011.2 |
| 20260905151530 | 72 | 316 | 2.6 | 9.6 | 0.00 | 0.00 | 0.00 | 70 | 1011.1 |
| 20260905150024 | 72 | 46 | 3.5 | 10.4 | 0.00 | 0.00 | 0.00 | 66 | 1011.0 |
| 20260905144507 | 71 | 121 | 2.6 | 13.0 | 0.00 | 0.00 | 0.00 | 69 | 1011.2 |
| 20260905143009 | 70 | 304 | 3.5 | 10.4 | 0.00 | 0.00 | 0.00 | 70 | 1011.4 |
| 20260905141516 | 71 | 34 | 3.5 | 9.6 | 0.00 | 0.00 | 0.00 | 70 | 1011.4 |
| 20260905140026 | 70 | 321 | 2.6 | 13.0 | 0.00 | 0.00 | 0.00 | 71 | 1011.4 |
| 20260905134526 | 69 | 342 | 2.6 | 12.2 | 0.00 | 0.01 | 0.00 | 73 | 1011.5 |
| 20260905133009 | 69 | 81 | 2.6 | 7.8 | 0.00 | 0.01 | 0.00 | 77 | 1011.4 |
| 20260905131511 | 67 | 286 | 2.6 | 5.2 | 0.00 | 0.01 | 0.00 | 80 | 1011.6 |
| 20260905130018 | 65 | 273 | 0.9 | 2.6 | 0.00 | 0.01 | 0.00 | 82 | 1011.8 |
| 20260905124525 | 65 | 321 | 1.7 | 2.6 | 0.00 | 0.01 | 0.00 | 83 | 1011.7 |
| 20260905123026 | 64 | 321 | 0.9 | 1.7 | 0.00 | 0.01 | 0.00 | 87 | 1011.5 |
| 20260905121508 | 63 | 307 | 0.0 | 1.7 | 0.00 | 0.01 | 0.00 | 87 | 1011.4 |
| 20260905120016 | 63 | 41 | 0.0 | 0.0 | 0.00 | 0.01 | 0.00 | 86 | 1011.2 |
| 20260905114518 | 61 | 344 | 0.0 | 1.7 | 0.00 | 0.01 | 0.00 | 93 | 1011.0 |
| 20260905113024 | 59 | 113 | 0.0 | 1.7 | 0.00 | 0.01 | 0.00 | 94 | 1011.0 |
| 20260905111546 | 58 | 124 | 0.0 | 0.0 | 0.00 | 0.01 | 0.00 | 95 | 1010.9 |
| 20260905110038 | 56 | 124 | 0.0 | 0.0 | 0.00 | 0.01 | 0.00 | 96 | 1010.6 |
| 20260905104515 | 56 | 124 | 0.0 | 0.9 | 0.00 | 0.01 | 0.00 | 96 | 1010.6 |
| 20260905103020 | 56 | 223 | 0.0 | 0.9 | 0.00 | 0.01 | 0.00 | 96 | 1010.6 |
| 20260905101545 | 56 | 123 | 0.0 | 0.9 | 0.00 | 0.01 | 0.00 | 96 | 1010.6 |
| 20260905100030 | 57 | 122 | 0.0 | 0.0 | 0.00 | 0.01 | 0.00 | 96 | 1010.5 |
| 20260905094531 | 56 | 122 | 0.0 | 0.0 | 0.00 | 0.01 | 0.00 | 95 | 1010.5 |
| 20260905093016 | 57 | 122 | 0.0 | 0.9 | 0.00 | 0.01 | 0.00 | 95 | 1010.4 |
| 20260905091521 | 58 | 123 | 0.0 | 0.0 | 0.00 | 0.01 | 0.00 | 96 | 1010.4 |
| 20260905090028 | 58 | 123 | 0.0 | 0.9 | 0.00 | 0.01 | 0.00 | 95 | 1010.3 |
| 20260905084531 | 58 | 123 | 0.0 | 0.0 | 0.00 | 0.01 | 0.00 | 95 | 1010.1 |
| 20260905083032 | 58 | 123 | 0.0 | 0.0 | 0.00 | 0.01 | 0.00 | 95 | 1010.2 |
| 20260905081517 | 58 | 123 | 0.0 | 0.9 | 0.00 | 0.01 | 0.00 | 95 | 1010.2 |
| 20260905080036 | 58 | 123 | 0.0 | 0.9 | 0.00 | 0.01 | 0.00 | 95 | 1010.3 |
| 20260905074527 | 58 | 124 | 0.0 | 0.9 | 0.00 | 0.01 | 0.00 | 95 | 1010.4 |
| 20260905073029 | 59 | 124 | 0.0 | 0.9 | 0.00 | 0.01 | 0.00 | 94 | 1010.5 |
| 20260905071533 | 59 | 124 | 0.0 | 0.9 | 0.00 | 0.01 | 0.00 | 94 | 1010.6 |
| 20260905070019 | 59 | 129 | 0.0 | 0.0 | 0.00 | 0.01 | 0.00 | 94 | 1010.6 |
| 20260905064526 | 60 | 129 | 0.0 | 0.9 | 0.00 | 0.01 | 0.00 | 94 | 1010.7 |
| 20260905063027 | 60 | 131 | 0.0 | 0.0 | 0.00 | 0.01 | 0.00 | 93 | 1010.7 |
| 20260905061513 | 60 | 131 | 0.0 | 0.0 | 0.00 | 0.01 | 0.00 | 93 | 1010.7 |
| 20260905060025 | 61 | 131 | 0.0 | 0.9 | 0.00 | 0.01 | 0.00 | 93 | 1011.0 |
| 20260905054522 | 61 | 134 | 0.0 | 0.0 | 0.00 | 0.01 | 0.00 | 93 | 1010.9 |
| 20260905053027 | 61 | 134 | 0.0 | 0.0 | 0.00 | 0.01 | 0.00 | 92 | 1011.1 |
| 20260905051541 | 61 | 134 | 0.0 | 0.9 | 0.00 | 0.01 | 0.00 | 92 | 1011.1 |
| 20260905050015 | 62 | 160 | 0.0 | 0.9 | 0.00 | 0.01 | 0.00 | 91 | 1011.2 |
| 20260905044518 | 62 | 20 | 0.0 | 0.0 | 0.00 | 0.01 | 0.00 | 90 | 1011.3 |
| 20260905043025 | 63 | 20 | 0.0 | 0.0 | 0.00 | 0.01 | 0.00 | 90 | 1011.1 |